sensor_id;sensor_type;location;lat;lon;timestamp;temperature;humidity
33881;DHT22;20172;47.530;10.256;2023-04-25T00:00:43;8.20;99.90
33881;DHT22;20172;47.530;10.256;2023-04-25T00:03:09;8.30;99.90
33881;DHT22;20172;47.530;10.256;2023-04-25T00:05:34;8.20;99.90
33881;DHT22;20172;47.530;10.256;2023-04-25T00:08:02;8.20;99.90
33881;DHT22;20172;47.530;10.256;2023-04-25T00:10:28;8.20;99.90
33881;DHT22;20172;47.530;10.256;2023-04-25T00:12:53;8.20;99.90
33881;DHT22;20172;47.530;10.256;2023-04-25T00:15:19;8.20;99.90
33881;DHT22;20172;47.530;10.256;2023-04-25T00:17:44;8.10;99.90
33881;DHT22;20172;47.530;10.256;2023-04-25T00:20:11;8.20;99.90
33881;DHT22;20172;47.530;10.256;2023-04-25T00:22:36;8.10;99.90
33881;DHT22;20172;47.530;10.256;2023-04-25T00:25:05;8.00;99.90
33881;DHT22;20172;47.530;10.256;2023-04-25T00:27:31;8.10;99.90
33881;DHT22;20172;47.530;10.256;2023-04-25T00:29:57;8.10;99.90
33881;DHT22;20172;47.530;10.256;2023-04-25T00:32:22;8.10;99.90
33881;DHT22;20172;47.530;10.256;2023-04-25T00:34:48;8.10;99.90
33881;DHT22;20172;47.530;10.256;2023-04-25T00:37:13;8.10;99.90
33881;DHT22;20172;47.530;10.256;2023-04-25T00:39:39;8.20;99.90
33881;DHT22;20172;47.530;10.256;2023-04-25T00:42:04;8.10;99.90
33881;DHT22;20172;47.530;10.256;2023-04-25T00:44:30;8.10;99.90
33881;DHT22;20172;47.530;10.256;2023-04-25T00:46:57;8.10;99.90
33881;DHT22;20172;47.530;10.256;2023-04-25T00:49:22;8.10;99.90
33881;DHT22;20172;47.530;10.256;2023-04-25T00:51:48;8.00;99.90
33881;DHT22;20172;47.530;10.256;2023-04-25T00:54:14;8.00;99.90
33881;DHT22;20172;47.530;10.256;2023-04-25T00:56:40;8.00;99.90
33881;DHT22;20172;47.530;10.256;2023-04-25T00:59:06;8.10;99.90
33881;DHT22;20172;47.530;10.256;2023-04-25T01:01:32;8.00;99.90
33881;DHT22;20172;47.530;10.256;2023-04-25T01:03:58;8.00;99.90
33881;DHT22;20172;47.530;10.256;2023-04-25T01:06:24;8.10;99.90
33881;DHT22;20172;47.530;10.256;2023-04-25T01:08:49;8.10;99.90
33881;DHT22;20172;47.530;10.256;2023-04-25T01:11:16;8.10;99.90
33881;DHT22;20172;47.530;10.256;2023-04-25T01:13:41;8.10;99.90
33881;DHT22;20172;47.530;10.256;2023-04-25T01:16:07;8.10;99.90
33881;DHT22;20172;47.530;10.256;2023-04-25T01:18:33;8.10;99.90
33881;DHT22;20172;47.530;10.256;2023-04-25T01:21:31;8.10;99.90
33881;DHT22;20172;47.530;10.256;2023-04-25T01:23:52;8.10;99.90
33881;DHT22;20172;47.530;10.256;2023-04-25T01:26:18;8.00;99.90
33881;DHT22;20172;47.530;10.256;2023-04-25T01:28:43;7.90;99.90
33881;DHT22;20172;47.530;10.256;2023-04-25T01:31:09;7.90;99.90
33881;DHT22;20172;47.530;10.256;2023-04-25T01:33:35;7.90;99.90
33881;DHT22;20172;47.530;10.256;2023-04-25T01:36:01;8.00;99.90
33881;DHT22;20172;47.530;10.256;2023-04-25T01:38:26;8.00;99.90
33881;DHT22;20172;47.530;10.256;2023-04-25T01:40:52;8.00;99.90
33881;DHT22;20172;47.530;10.256;2023-04-25T01:43:18;8.00;99.90
33881;DHT22;20172;47.530;10.256;2023-04-25T01:45:44;8.10;99.90
33881;DHT22;20172;47.530;10.256;2023-04-25T01:48:11;8.10;99.90
33881;DHT22;20172;47.530;10.256;2023-04-25T01:50:37;8.00;99.90
33881;DHT22;20172;47.530;10.256;2023-04-25T01:53:03;7.90;99.90
33881;DHT22;20172;47.530;10.256;2023-04-25T01:55:30;7.70;99.90
33881;DHT22;20172;47.530;10.256;2023-04-25T01:57:55;7.70;99.90
33881;DHT22;20172;47.530;10.256;2023-04-25T02:00:21;7.60;99.90
33881;DHT22;20172;47.530;10.256;2023-04-25T02:02:46;7.70;99.90
33881;DHT22;20172;47.530;10.256;2023-04-25T02:05:12;7.70;99.90
33881;DHT22;20172;47.530;10.256;2023-04-25T02:07:37;7.80;99.90
33881;DHT22;20172;47.530;10.256;2023-04-25T02:10:03;7.80;99.90
33881;DHT22;20172;47.530;10.256;2023-04-25T02:12:29;7.80;99.90
33881;DHT22;20172;47.530;10.256;2023-04-25T02:14:55;7.80;99.90
33881;DHT22;20172;47.530;10.256;2023-04-25T02:17:20;7.90;99.90
33881;DHT22;20172;47.530;10.256;2023-04-25T02:19:48;7.90;99.90
33881;DHT22;20172;47.530;10.256;2023-04-25T02:22:13;7.90;99.90
33881;DHT22;20172;47.530;10.256;2023-04-25T02:24:39;7.90;99.90
33881;DHT22;20172;47.530;10.256;2023-04-25T02:27:04;7.90;99.90
33881;DHT22;20172;47.530;10.256;2023-04-25T02:29:30;7.90;99.90
33881;DHT22;20172;47.530;10.256;2023-04-25T02:31:56;7.90;99.90
33881;DHT22;20172;47.530;10.256;2023-04-25T02:34:21;7.90;99.90
33881;DHT22;20172;47.530;10.256;2023-04-25T02:36:48;7.90;99.90
33881;DHT22;20172;47.530;10.256;2023-04-25T02:39:13;7.90;99.90
33881;DHT22;20172;47.530;10.256;2023-04-25T02:41:39;7.90;99.90
33881;DHT22;20172;47.530;10.256;2023-04-25T02:44:04;8.00;99.90
33881;DHT22;20172;47.530;10.256;2023-04-25T02:46:30;7.90;99.90
33881;DHT22;20172;47.530;10.256;2023-04-25T02:48:55;8.00;99.90
33881;DHT22;20172;47.530;10.256;2023-04-25T02:51:21;8.00;99.90
33881;DHT22;20172;47.530;10.256;2023-04-25T02:53:46;8.00;99.90
33881;DHT22;20172;47.530;10.256;2023-04-25T02:56:12;8.10;99.90
33881;DHT22;20172;47.530;10.256;2023-04-25T02:58:37;8.10;99.90
33881;DHT22;20172;47.530;10.256;2023-04-25T03:01:03;8.10;99.90
33881;DHT22;20172;47.530;10.256;2023-04-25T03:03:28;8.00;99.90
33881;DHT22;20172;47.530;10.256;2023-04-25T03:05:54;7.90;99.90
33881;DHT22;20172;47.530;10.256;2023-04-25T03:08:19;7.90;99.90
33881;DHT22;20172;47.530;10.256;2023-04-25T03:10:45;7.80;99.90
33881;DHT22;20172;47.530;10.256;2023-04-25T03:13:10;7.80;99.90
33881;DHT22;20172;47.530;10.256;2023-04-25T03:15:37;7.80;99.90
33881;DHT22;20172;47.530;10.256;2023-04-25T03:18:03;7.80;99.90
33881;DHT22;20172;47.530;10.256;2023-04-25T03:20:29;7.80;99.90
33881;DHT22;20172;47.530;10.256;2023-04-25T03:22:55;7.80;99.90
33881;DHT22;20172;47.530;10.256;2023-04-25T03:25:20;7.70;99.90
33881;DHT22;20172;47.530;10.256;2023-04-25T03:27:46;7.60;99.90
33881;DHT22;20172;47.530;10.256;2023-04-25T03:30:11;7.60;99.90
33881;DHT22;20172;47.530;10.256;2023-04-25T03:32:37;7.60;99.90
33881;DHT22;20172;47.530;10.256;2023-04-25T03:35:03;7.50;99.90
33881;DHT22;20172;47.530;10.256;2023-04-25T03:37:28;7.50;99.90
33881;DHT22;20172;47.530;10.256;2023-04-25T03:39:54;7.40;99.90
33881;DHT22;20172;47.530;10.256;2023-04-25T03:42:19;7.40;99.90
33881;DHT22;20172;47.530;10.256;2023-04-25T03:44:48;7.40;99.90
33881;DHT22;20172;47.530;10.256;2023-04-25T03:47:14;7.30;99.90
33881;DHT22;20172;47.530;10.256;2023-04-25T03:49:39;7.30;99.90
33881;DHT22;20172;47.530;10.256;2023-04-25T03:52:05;7.30;99.90
33881;DHT22;20172;47.530;10.256;2023-04-25T03:54:30;7.20;99.90
33881;DHT22;20172;47.530;10.256;2023-04-25T03:56:57;7.20;99.90
33881;DHT22;20172;47.530;10.256;2023-04-25T03:59:22;7.20;99.90
33881;DHT22;20172;47.530;10.256;2023-04-25T04:01:48;7.20;99.90
33881;DHT22;20172;47.530;10.256;2023-04-25T04:04:13;7.20;99.90
33881;DHT22;20172;47.530;10.256;2023-04-25T04:06:39;7.20;99.90
33881;DHT22;20172;47.530;10.256;2023-04-25T04:09:05;7.20;99.90
33881;DHT22;20172;47.530;10.256;2023-04-25T04:11:34;7.20;99.90
33881;DHT22;20172;47.530;10.256;2023-04-25T04:14:02;7.10;99.90
33881;DHT22;20172;47.530;10.256;2023-04-25T04:16:27;7.20;99.90
33881;DHT22;20172;47.530;10.256;2023-04-25T04:18:53;7.10;99.90
33881;DHT22;20172;47.530;10.256;2023-04-25T04:21:18;7.10;99.90
33881;DHT22;20172;47.530;10.256;2023-04-25T04:23:44;7.10;99.90
33881;DHT22;20172;47.530;10.256;2023-04-25T04:26:10;7.10;99.90
33881;DHT22;20172;47.530;10.256;2023-04-25T04:28:36;7.20;99.90
33881;DHT22;20172;47.530;10.256;2023-04-25T04:31:03;7.20;99.90
33881;DHT22;20172;47.530;10.256;2023-04-25T04:33:28;7.20;99.90
33881;DHT22;20172;47.530;10.256;2023-04-25T04:35:56;7.20;99.90
33881;DHT22;20172;47.530;10.256;2023-04-25T04:38:21;7.20;99.90
33881;DHT22;20172;47.530;10.256;2023-04-25T04:40:47;7.20;99.90
33881;DHT22;20172;47.530;10.256;2023-04-25T04:43:13;7.30;99.90
33881;DHT22;20172;47.530;10.256;2023-04-25T04:45:42;7.30;99.90
33881;DHT22;20172;47.530;10.256;2023-04-25T04:48:08;7.30;99.90
33881;DHT22;20172;47.530;10.256;2023-04-25T04:50:33;7.30;99.90
33881;DHT22;20172;47.530;10.256;2023-04-25T04:53:01;7.30;99.90
33881;DHT22;20172;47.530;10.256;2023-04-25T04:55:27;7.30;99.90
33881;DHT22;20172;47.530;10.256;2023-04-25T04:57:52;7.30;99.90
33881;DHT22;20172;47.530;10.256;2023-04-25T05:00:18;7.40;99.90
33881;DHT22;20172;47.530;10.256;2023-04-25T05:02:43;7.40;99.90
33881;DHT22;20172;47.530;10.256;2023-04-25T05:05:09;7.40;99.90
33881;DHT22;20172;47.530;10.256;2023-04-25T05:07:35;7.50;99.90
33881;DHT22;20172;47.530;10.256;2023-04-25T05:10:01;7.60;99.90
33881;DHT22;20172;47.530;10.256;2023-04-25T05:12:26;7.50;99.90
33881;DHT22;20172;47.530;10.256;2023-04-25T05:14:53;7.50;99.90
33881;DHT22;20172;47.530;10.256;2023-04-25T05:17:20;7.50;99.90
33881;DHT22;20172;47.530;10.256;2023-04-25T05:19:45;7.50;99.90
33881;DHT22;20172;47.530;10.256;2023-04-25T05:22:11;7.40;99.90
33881;DHT22;20172;47.530;10.256;2023-04-25T05:24:36;7.50;99.90
33881;DHT22;20172;47.530;10.256;2023-04-25T05:27:02;7.40;99.90
33881;DHT22;20172;47.530;10.256;2023-04-25T05:29:27;7.40;99.90
33881;DHT22;20172;47.530;10.256;2023-04-25T05:31:53;7.50;99.90
33881;DHT22;20172;47.530;10.256;2023-04-25T05:34:18;7.60;99.90
33881;DHT22;20172;47.530;10.256;2023-04-25T05:36:44;7.70;99.90
33881;DHT22;20172;47.530;10.256;2023-04-25T05:39:14;7.80;99.90
33881;DHT22;20172;47.530;10.256;2023-04-25T05:41:39;7.90;99.90
33881;DHT22;20172;47.530;10.256;2023-04-25T05:44:05;7.90;99.90
33881;DHT22;20172;47.530;10.256;2023-04-25T05:46:30;8.10;99.90
33881;DHT22;20172;47.530;10.256;2023-04-25T05:48:56;8.30;99.90
33881;DHT22;20172;47.530;10.256;2023-04-25T05:51:21;8.50;99.90
33881;DHT22;20172;47.530;10.256;2023-04-25T05:53:47;8.70;99.90
33881;DHT22;20172;47.530;10.256;2023-04-25T05:56:12;8.90;99.90
33881;DHT22;20172;47.530;10.256;2023-04-25T05:58:38;9.00;99.90
33881;DHT22;20172;47.530;10.256;2023-04-25T06:01:04;9.10;99.90
33881;DHT22;20172;47.530;10.256;2023-04-25T06:03:30;9.30;99.90
33881;DHT22;20172;47.530;10.256;2023-04-25T06:05:55;9.50;99.90
33881;DHT22;20172;47.530;10.256;2023-04-25T06:08:21;9.50;99.90
33881;DHT22;20172;47.530;10.256;2023-04-25T06:10:49;9.40;99.90
33881;DHT22;20172;47.530;10.256;2023-04-25T06:13:14;9.50;99.90
33881;DHT22;20172;47.530;10.256;2023-04-25T06:15:40;9.50;99.90
33881;DHT22;20172;47.530;10.256;2023-04-25T06:18:06;9.50;99.90
33881;DHT22;20172;47.530;10.256;2023-04-25T06:20:31;9.50;99.90
33881;DHT22;20172;47.530;10.256;2023-04-25T06:22:57;9.50;99.90
33881;DHT22;20172;47.530;10.256;2023-04-25T06:25:23;9.70;99.90
33881;DHT22;20172;47.530;10.256;2023-04-25T06:27:48;9.70;99.90
33881;DHT22;20172;47.530;10.256;2023-04-25T06:30:14;9.60;99.90
33881;DHT22;20172;47.530;10.256;2023-04-25T06:32:40;9.60;99.90
33881;DHT22;20172;47.530;10.256;2023-04-25T06:35:06;9.60;99.90
33881;DHT22;20172;47.530;10.256;2023-04-25T06:37:31;9.70;99.90
33881;DHT22;20172;47.530;10.256;2023-04-25T06:39:57;9.60;99.90
33881;DHT22;20172;47.530;10.256;2023-04-25T06:42:22;9.50;99.90
33881;DHT22;20172;47.530;10.256;2023-04-25T06:44:48;9.60;99.90
33881;DHT22;20172;47.530;10.256;2023-04-25T06:47:14;9.60;99.90
33881;DHT22;20172;47.530;10.256;2023-04-25T06:49:39;9.70;99.90
33881;DHT22;20172;47.530;10.256;2023-04-25T06:52:05;9.70;99.90
33881;DHT22;20172;47.530;10.256;2023-04-25T06:54:30;9.70;99.90
33881;DHT22;20172;47.530;10.256;2023-04-25T06:56:56;9.60;99.90
33881;DHT22;20172;47.530;10.256;2023-04-25T06:59:22;9.60;99.90
33881;DHT22;20172;47.530;10.256;2023-04-25T07:01:47;9.50;99.90
33881;DHT22;20172;47.530;10.256;2023-04-25T07:04:13;9.50;99.90
33881;DHT22;20172;47.530;10.256;2023-04-25T07:06:38;9.60;99.90
33881;DHT22;20172;47.530;10.256;2023-04-25T07:09:08;9.60;99.90
33881;DHT22;20172;47.530;10.256;2023-04-25T07:11:35;9.60;99.90
33881;DHT22;20172;47.530;10.256;2023-04-25T07:14:01;9.60;99.90
33881;DHT22;20172;47.530;10.256;2023-04-25T07:16:26;9.60;99.90
33881;DHT22;20172;47.530;10.256;2023-04-25T07:18:52;9.70;99.90
33881;DHT22;20172;47.530;10.256;2023-04-25T07:21:18;9.60;99.90
33881;DHT22;20172;47.530;10.256;2023-04-25T07:23:44;9.60;99.90
33881;DHT22;20172;47.530;10.256;2023-04-25T07:26:10;9.60;99.90
33881;DHT22;20172;47.530;10.256;2023-04-25T07:28:35;9.60;99.90
33881;DHT22;20172;47.530;10.256;2023-04-25T07:31:01;9.70;99.90
33881;DHT22;20172;47.530;10.256;2023-04-25T07:33:27;9.80;99.90
33881;DHT22;20172;47.530;10.256;2023-04-25T07:35:53;9.90;99.90
33881;DHT22;20172;47.530;10.256;2023-04-25T07:38:20;10.10;99.90
33881;DHT22;20172;47.530;10.256;2023-04-25T07:40:45;10.30;99.90
33881;DHT22;20172;47.530;10.256;2023-04-25T07:43:11;10.40;99.90
33881;DHT22;20172;47.530;10.256;2023-04-25T07:45:39;10.50;99.90
33881;DHT22;20172;47.530;10.256;2023-04-25T07:48:05;10.60;99.90
33881;DHT22;20172;47.530;10.256;2023-04-25T07:50:30;10.90;99.90
33881;DHT22;20172;47.530;10.256;2023-04-25T07:52:56;11.00;99.90
33881;DHT22;20172;47.530;10.256;2023-04-25T07:55:21;11.10;99.90
33881;DHT22;20172;47.530;10.256;2023-04-25T07:57:47;11.40;99.90
33881;DHT22;20172;47.530;10.256;2023-04-25T08:00:13;11.50;99.90
33881;DHT22;20172;47.530;10.256;2023-04-25T08:02:40;11.60;99.90
33881;DHT22;20172;47.530;10.256;2023-04-25T08:05:05;11.80;99.90
33881;DHT22;20172;47.530;10.256;2023-04-25T08:07:33;11.90;99.90
33881;DHT22;20172;47.530;10.256;2023-04-25T08:09:59;11.80;99.90
33881;DHT22;20172;47.530;10.256;2023-04-25T08:12:24;11.80;99.90
33881;DHT22;20172;47.530;10.256;2023-04-25T08:14:50;11.80;99.90
33881;DHT22;20172;47.530;10.256;2023-04-25T08:17:16;11.90;99.90
33881;DHT22;20172;47.530;10.256;2023-04-25T08:19:41;11.80;99.90
33881;DHT22;20172;47.530;10.256;2023-04-25T08:22:07;11.80;99.90
33881;DHT22;20172;47.530;10.256;2023-04-25T08:24:32;11.80;99.90
33881;DHT22;20172;47.530;10.256;2023-04-25T08:26:58;11.90;99.90
33881;DHT22;20172;47.530;10.256;2023-04-25T08:29:24;11.90;99.90
33881;DHT22;20172;47.530;10.256;2023-04-25T08:31:51;12.00;99.90
33881;DHT22;20172;47.530;10.256;2023-04-25T08:34:18;12.20;99.90
33881;DHT22;20172;47.530;10.256;2023-04-25T08:36:43;12.10;99.90
33881;DHT22;20172;47.530;10.256;2023-04-25T08:39:09;12.10;99.90
33881;DHT22;20172;47.530;10.256;2023-04-25T08:41:38;12.30;99.90
33881;DHT22;20172;47.530;10.256;2023-04-25T08:44:03;12.40;99.90
33881;DHT22;20172;47.530;10.256;2023-04-25T08:46:30;12.60;99.90
33881;DHT22;20172;47.530;10.256;2023-04-25T08:49:01;12.80;99.90
33881;DHT22;20172;47.530;10.256;2023-04-25T08:51:27;13.00;99.90
33881;DHT22;20172;47.530;10.256;2023-04-25T08:53:54;12.80;99.90
33881;DHT22;20172;47.530;10.256;2023-04-25T08:56:21;12.70;99.90
33881;DHT22;20172;47.530;10.256;2023-04-25T08:58:48;12.70;99.90
33881;DHT22;20172;47.530;10.256;2023-04-25T09:01:15;12.40;99.90
33881;DHT22;20172;47.530;10.256;2023-04-25T09:03:43;12.30;99.90
33881;DHT22;20172;47.530;10.256;2023-04-25T09:06:10;12.20;99.90
33881;DHT22;20172;47.530;10.256;2023-04-25T09:08:36;12.20;99.90
33881;DHT22;20172;47.530;10.256;2023-04-25T09:11:01;12.10;99.90
33881;DHT22;20172;47.530;10.256;2023-04-25T09:13:27;11.80;99.90
33881;DHT22;20172;47.530;10.256;2023-04-25T09:15:56;11.60;99.90
33881;DHT22;20172;47.530;10.256;2023-04-25T09:20:48;11.20;99.90
33881;DHT22;20172;47.530;10.256;2023-04-25T09:23:14;10.90;99.90
33881;DHT22;20172;47.530;10.256;2023-04-25T09:25:40;10.60;99.90
33881;DHT22;20172;47.530;10.256;2023-04-25T09:28:06;10.20;99.90
33881;DHT22;20172;47.530;10.256;2023-04-25T09:30:32;9.90;99.90
33881;DHT22;20172;47.530;10.256;2023-04-25T09:33:03;9.50;99.90
33881;DHT22;20172;47.530;10.256;2023-04-25T09:35:30;9.40;99.90
33881;DHT22;20172;47.530;10.256;2023-04-25T09:38:00;9.30;99.90
33881;DHT22;20172;47.530;10.256;2023-04-25T09:40:26;9.10;99.90
33881;DHT22;20172;47.530;10.256;2023-04-25T09:42:51;9.10;99.90
33881;DHT22;20172;47.530;10.256;2023-04-25T09:45:17;8.90;99.90
33881;DHT22;20172;47.530;10.256;2023-04-25T09:47:42;8.90;99.90
33881;DHT22;20172;47.530;10.256;2023-04-25T09:50:14;8.90;99.90
33881;DHT22;20172;47.530;10.256;2023-04-25T09:52:41;9.00;99.90
33881;DHT22;20172;47.530;10.256;2023-04-25T09:55:06;9.00;99.90
33881;DHT22;20172;47.530;10.256;2023-04-25T09:57:32;8.90;99.90
33881;DHT22;20172;47.530;10.256;2023-04-25T09:59:58;8.90;99.90
33881;DHT22;20172;47.530;10.256;2023-04-25T10:02:25;8.90;99.90
33881;DHT22;20172;47.530;10.256;2023-04-25T10:04:52;8.90;99.90
33881;DHT22;20172;47.530;10.256;2023-04-25T10:07:20;8.90;99.90
33881;DHT22;20172;47.530;10.256;2023-04-25T10:09:47;8.90;99.90
33881;DHT22;20172;47.530;10.256;2023-04-25T10:12:13;9.00;99.90
33881;DHT22;20172;47.530;10.256;2023-04-25T10:14:38;9.00;99.90
33881;DHT22;20172;47.530;10.256;2023-04-25T10:17:05;9.10;99.90
33881;DHT22;20172;47.530;10.256;2023-04-25T10:19:31;9.20;99.90
33881;DHT22;20172;47.530;10.256;2023-04-25T10:24:22;9.50;99.90
33881;DHT22;20172;47.530;10.256;2023-04-25T10:26:48;9.60;99.90
33881;DHT22;20172;47.530;10.256;2023-04-25T10:29:21;9.60;99.90
33881;DHT22;20172;47.530;10.256;2023-04-25T10:31:47;9.50;99.90
33881;DHT22;20172;47.530;10.256;2023-04-25T10:34:12;9.50;99.90
33881;DHT22;20172;47.530;10.256;2023-04-25T10:36:38;9.50;99.90
33881;DHT22;20172;47.530;10.256;2023-04-25T10:39:05;9.40;99.90
33881;DHT22;20172;47.530;10.256;2023-04-25T10:44:33;9.00;99.90
33881;DHT22;20172;47.530;10.256;2023-04-25T10:46:59;9.00;99.90
33881;DHT22;20172;47.530;10.256;2023-04-25T10:49:43;9.30;99.90
33881;DHT22;20172;47.530;10.256;2023-04-25T10:54:54;10.20;99.90
33881;DHT22;20172;47.530;10.256;2023-04-25T10:57:26;10.70;99.90
33881;DHT22;20172;47.530;10.256;2023-04-25T10:59:54;10.90;99.90
33881;DHT22;20172;47.530;10.256;2023-04-25T11:02:19;11.10;99.90
33881;DHT22;20172;47.530;10.256;2023-04-25T11:04:45;11.10;99.90
33881;DHT22;20172;47.530;10.256;2023-04-25T11:07:13;11.20;99.90
33881;DHT22;20172;47.530;10.256;2023-04-25T11:09:42;11.00;99.90
33881;DHT22;20172;47.530;10.256;2023-04-25T11:12:08;10.60;99.90
33881;DHT22;20172;47.530;10.256;2023-04-25T11:14:34;10.40;99.90
33881;DHT22;20172;47.530;10.256;2023-04-25T11:16:59;10.20;99.90
33881;DHT22;20172;47.530;10.256;2023-04-25T11:19:26;10.20;99.90
33881;DHT22;20172;47.530;10.256;2023-04-25T11:21:55;10.20;99.90
33881;DHT22;20172;47.530;10.256;2023-04-25T11:24:25;10.30;99.90
33881;DHT22;20172;47.530;10.256;2023-04-25T11:26:50;10.40;99.90
33881;DHT22;20172;47.530;10.256;2023-04-25T11:29:16;10.40;99.90
33881;DHT22;20172;47.530;10.256;2023-04-25T11:31:45;10.40;99.90
33881;DHT22;20172;47.530;10.256;2023-04-25T11:34:11;10.30;99.90
33881;DHT22;20172;47.530;10.256;2023-04-25T11:36:36;10.50;99.90
33881;DHT22;20172;47.530;10.256;2023-04-25T11:39:03;10.70;99.90
33881;DHT22;20172;47.530;10.256;2023-04-25T11:41:29;10.70;99.90
33881;DHT22;20172;47.530;10.256;2023-04-25T11:43:55;10.70;99.90
33881;DHT22;20172;47.530;10.256;2023-04-25T11:46:21;10.70;99.90
33881;DHT22;20172;47.530;10.256;2023-04-25T11:48:47;10.80;99.90
33881;DHT22;20172;47.530;10.256;2023-04-25T11:51:13;11.00;99.90
33881;DHT22;20172;47.530;10.256;2023-04-25T11:53:40;11.40;99.90
33881;DHT22;20172;47.530;10.256;2023-04-25T11:56:10;11.60;99.90
33881;DHT22;20172;47.530;10.256;2023-04-25T12:01:28;12.30;99.90
33881;DHT22;20172;47.530;10.256;2023-04-25T12:03:55;12.70;99.90
33881;DHT22;20172;47.530;10.256;2023-04-25T12:06:21;12.90;99.90
33881;DHT22;20172;47.530;10.256;2023-04-25T12:09:02;12.90;99.90
33881;DHT22;20172;47.530;10.256;2023-04-25T12:11:29;12.80;99.90
33881;DHT22;20172;47.530;10.256;2023-04-25T12:13:55;12.30;99.90
33881;DHT22;20172;47.530;10.256;2023-04-25T12:16:20;11.80;99.90
33881;DHT22;20172;47.530;10.256;2023-04-25T12:18:46;11.30;99.90
33881;DHT22;20172;47.530;10.256;2023-04-25T12:21:11;11.00;99.90
33881;DHT22;20172;47.530;10.256;2023-04-25T12:23:38;10.70;99.90
33881;DHT22;20172;47.530;10.256;2023-04-25T12:26:03;10.40;99.90
33881;DHT22;20172;47.530;10.256;2023-04-25T12:28:29;10.30;99.90
33881;DHT22;20172;47.530;10.256;2023-04-25T12:33:24;10.80;99.90
33881;DHT22;20172;47.530;10.256;2023-04-25T12:35:50;11.20;99.90
33881;DHT22;20172;47.530;10.256;2023-04-25T12:40:47;12.60;99.90
33881;DHT22;20172;47.530;10.256;2023-04-25T12:43:13;12.90;99.90
33881;DHT22;20172;47.530;10.256;2023-04-25T12:45:40;12.90;99.90
33881;DHT22;20172;47.530;10.256;2023-04-25T12:48:05;12.80;99.90
33881;DHT22;20172;47.530;10.256;2023-04-25T12:50:31;12.60;99.90
33881;DHT22;20172;47.530;10.256;2023-04-25T12:52:57;12.30;99.90
33881;DHT22;20172;47.530;10.256;2023-04-25T12:55:23;11.70;99.90
33881;DHT22;20172;47.530;10.256;2023-04-25T12:57:48;11.00;99.90
33881;DHT22;20172;47.530;10.256;2023-04-25T13:00:14;10.30;99.90
33881;DHT22;20172;47.530;10.256;2023-04-25T13:02:40;9.70;99.90
33881;DHT22;20172;47.530;10.256;2023-04-25T13:05:06;9.40;99.90
33881;DHT22;20172;47.530;10.256;2023-04-25T13:07:31;9.20;99.90
33881;DHT22;20172;47.530;10.256;2023-04-25T13:09:57;9.20;99.90
33881;DHT22;20172;47.530;10.256;2023-04-25T13:12:22;9.30;99.90
33881;DHT22;20172;47.530;10.256;2023-04-25T13:14:48;9.50;99.90
33881;DHT22;20172;47.530;10.256;2023-04-25T13:17:13;10.00;99.90
33881;DHT22;20172;47.530;10.256;2023-04-25T13:19:39;10.90;99.90
33881;DHT22;20172;47.530;10.256;2023-04-25T13:22:04;11.50;99.90
33881;DHT22;20172;47.530;10.256;2023-04-25T13:24:30;12.10;99.90
33881;DHT22;20172;47.530;10.256;2023-04-25T13:26:55;12.80;99.90
33881;DHT22;20172;47.530;10.256;2023-04-25T13:29:21;13.10;99.90
33881;DHT22;20172;47.530;10.256;2023-04-25T13:31:46;12.70;99.90
33881;DHT22;20172;47.530;10.256;2023-04-25T13:34:12;12.30;99.90
33881;DHT22;20172;47.530;10.256;2023-04-25T13:36:37;11.90;99.90
33881;DHT22;20172;47.530;10.256;2023-04-25T13:39:03;11.50;99.90
33881;DHT22;20172;47.530;10.256;2023-04-25T13:41:29;11.20;99.90
33881;DHT22;20172;47.530;10.256;2023-04-25T13:43:55;10.90;99.90
33881;DHT22;20172;47.530;10.256;2023-04-25T13:46:21;10.70;99.90
33881;DHT22;20172;47.530;10.256;2023-04-25T13:48:46;11.00;99.90
33881;DHT22;20172;47.530;10.256;2023-04-25T13:51:16;11.20;99.90
33881;DHT22;20172;47.530;10.256;2023-04-25T13:53:42;11.30;99.90
33881;DHT22;20172;47.530;10.256;2023-04-25T13:56:08;11.40;99.90
33881;DHT22;20172;47.530;10.256;2023-04-25T13:58:34;11.70;99.90
33881;DHT22;20172;47.530;10.256;2023-04-25T14:00:59;12.00;99.90
33881;DHT22;20172;47.530;10.256;2023-04-25T14:03:26;12.10;99.90
33881;DHT22;20172;47.530;10.256;2023-04-25T14:05:51;11.80;99.90
33881;DHT22;20172;47.530;10.256;2023-04-25T14:08:17;11.60;99.90
33881;DHT22;20172;47.530;10.256;2023-04-25T14:10:42;11.60;99.90
33881;DHT22;20172;47.530;10.256;2023-04-25T14:13:08;11.60;99.90
33881;DHT22;20172;47.530;10.256;2023-04-25T14:15:34;12.10;99.90
33881;DHT22;20172;47.530;10.256;2023-04-25T14:17:59;12.40;99.90
33881;DHT22;20172;47.530;10.256;2023-04-25T14:20:25;12.30;99.90
33881;DHT22;20172;47.530;10.256;2023-04-25T14:22:51;12.20;99.90
33881;DHT22;20172;47.530;10.256;2023-04-25T14:25:19;11.40;99.90
33881;DHT22;20172;47.530;10.256;2023-04-25T14:28:19;10.80;99.90
33881;DHT22;20172;47.530;10.256;2023-04-25T14:30:45;10.80;99.90
33881;DHT22;20172;47.530;10.256;2023-04-25T14:33:10;10.50;99.90
33881;DHT22;20172;47.530;10.256;2023-04-25T14:35:39;10.40;99.90
33881;DHT22;20172;47.530;10.256;2023-04-25T14:38:05;10.10;99.90
33881;DHT22;20172;47.530;10.256;2023-04-25T14:40:30;9.90;99.90
33881;DHT22;20172;47.530;10.256;2023-04-25T14:42:56;9.60;99.90
33881;DHT22;20172;47.530;10.256;2023-04-25T14:45:21;9.30;99.90
33881;DHT22;20172;47.530;10.256;2023-04-25T14:47:47;9.20;99.90
33881;DHT22;20172;47.530;10.256;2023-04-25T14:50:12;9.20;99.90
33881;DHT22;20172;47.530;10.256;2023-04-25T14:52:38;9.10;99.90
33881;DHT22;20172;47.530;10.256;2023-04-25T14:55:03;9.10;99.90
33881;DHT22;20172;47.530;10.256;2023-04-25T14:57:31;9.10;99.90
33881;DHT22;20172;47.530;10.256;2023-04-25T14:59:57;9.10;99.90
33881;DHT22;20172;47.530;10.256;2023-04-25T15:02:23;9.00;99.90
33881;DHT22;20172;47.530;10.256;2023-04-25T15:04:49;8.90;99.90
33881;DHT22;20172;47.530;10.256;2023-04-25T15:07:14;8.90;99.90
33881;DHT22;20172;47.530;10.256;2023-04-25T15:09:40;8.90;99.90
33881;DHT22;20172;47.530;10.256;2023-04-25T15:12:05;8.90;99.90
33881;DHT22;20172;47.530;10.256;2023-04-25T15:14:31;8.80;99.90
33881;DHT22;20172;47.530;10.256;2023-04-25T15:16:57;8.80;99.90
33881;DHT22;20172;47.530;10.256;2023-04-25T15:19:22;8.70;99.90
33881;DHT22;20172;47.530;10.256;2023-04-25T15:21:48;8.60;99.90
33881;DHT22;20172;47.530;10.256;2023-04-25T15:24:14;8.60;99.90
33881;DHT22;20172;47.530;10.256;2023-04-25T15:26:40;8.50;99.90
33881;DHT22;20172;47.530;10.256;2023-04-25T15:29:06;8.50;99.90
33881;DHT22;20172;47.530;10.256;2023-04-25T15:31:31;8.50;99.90
33881;DHT22;20172;47.530;10.256;2023-04-25T15:33:57;8.50;99.90
33881;DHT22;20172;47.530;10.256;2023-04-25T15:36:22;8.50;99.90